Time;durP1;ratioP1;P1;durP2;ratioP2;P2;SDS_P1;SDS_P2;PMS_P1;PMS_P2;Temp;Humidity;BMP_temperature;BMP_pressure;BME280_temperature;BME280_humidity;BME280_pressure;Samples;Min_cycle;Max_cycle;Signal;HPM_P1;HPM_P2
2022/04/28 00:00:40;;;;;;;14.02;12.48;;;;;;;9.66;100.00;100171.91;4954770;28;20213;-79
2022/04/28 00:03:08;;;;;;;14.68;12.52;;;;;;;9.56;100.00;100176.78;4954709;28;20567;-79
2022/04/28 00:05:35;;;;;;;15.25;13.23;;;;;;;9.58;100.00;100174.91;4954952;28;20262;-79
2022/04/28 00:08:03;;;;;;;17.80;13.55;;;;;;;9.46;100.00;100172.78;4954315;28;20195;-78
2022/04/28 00:10:30;;;;;;;14.55;13.05;;;;;;;9.54;100.00;100173.28;4954897;28;20676;-78
2022/04/28 00:12:57;;;;;;;14.23;12.75;;;;;;;9.66;100.00;100170.06;4954510;28;20194;-78
2022/04/28 00:15:24;;;;;;;16.40;13.05;;;;;;;9.54;100.00;100173.28;4954476;28;20705;-79
2022/04/28 00:17:50;;;;;;;17.92;12.73;;;;;;;9.46;100.00;100167.41;4954627;28;20604;-79
2022/04/28 00:20:17;;;;;;;16.02;12.63;;;;;;;9.64;100.00;100171.97;4954888;28;20290;-79
2022/04/28 00:22:43;;;;;;;16.02;12.82;;;;;;;9.69;100.00;100179.81;4954081;28;20205;-79
2022/04/28 00:25:11;;;;;;;16.25;14.73;;;;;;;9.73;100.00;100170.66;4945779;28;20204;-79
2022/04/28 00:27:38;;;;;;;14.50;12.80;;;;;;;9.62;100.00;100176.53;4948818;29;20283;-78
2022/04/28 00:30:06;;;;;;;13.93;12.40;;;;;;;9.71;100.00;100176.09;4954229;28;20213;-78
2022/04/28 00:32:32;;;;;;;13.45;12.05;;;;;;;9.62;100.00;100170.28;4954295;28;20541;-78
2022/04/28 00:34:59;;;;;;;14.73;13.32;;;;;;;9.54;100.00;100173.28;4953774;28;20190;-78
2022/04/28 00:37:26;;;;;;;14.57;13.07;;;;;;;9.55;100.00;100161.63;4954311;28;20208;-78
2022/04/28 00:39:52;;;;;;;15.02;13.43;;;;;;;9.57;100.00;100167.81;4954139;28;20278;-78
2022/04/28 00:42:20;;;;;;;15.63;12.48;;;;;;;9.47;100.00;100163.75;4954282;28;20200;-78
2022/04/28 00:44:47;;;;;;;13.60;12.30;;;;;;;9.30;100.00;100157.31;4954473;28;20209;-78
2022/04/28 00:47:14;;;;;;;15.40;12.70;;;;;;;9.19;100.00;100159.59;4954296;28;20207;-78
2022/04/28 00:52:27;;;;;;;16.40;12.95;;;;;;;9.03;100.00;100155.84;4953825;29;20237;-78
2022/04/28 00:54:55;;;;;;;13.75;11.98;;;;;;;9.08;100.00;100164.56;4953751;28;20204;-77
2022/04/28 00:57:23;;;;;;;14.23;11.90;;;;;;;9.13;100.00;100158.03;4954088;28;20653;-80
2022/04/28 00:59:52;;;;;;;14.23;11.85;;;;;;;9.15;100.00;100160.69;4953866;29;20220;-79
2022/04/28 01:02:19;;;;;;;13.20;11.90;;;;;;;9.11;100.00;100162.63;4954157;28;20290;-80
2022/04/28 01:04:46;;;;;;;13.90;12.50;;;;;;;9.13;100.00;100158.03;4953447;28;20214;-78
2022/04/28 01:07:13;;;;;;;15.63;13.93;;;;;;;9.17;100.00;100158.81;4953776;28;20204;-79
2022/04/28 01:09:41;;;;;;;12.60;10.95;;;;;;;9.24;100.00;100165.66;4954275;28;20553;-79
2022/04/28 01:12:09;;;;;;;12.73;11.40;;;;;;;9.09;100.00;100160.94;4953591;28;20250;-80
2022/04/28 01:14:37;;;;;;;13.10;11.80;;;;;;;9.12;100.00;100160.81;4953867;28;20205;-78
2022/04/28 01:17:04;;;;;;;13.60;11.10;;;;;;;8.99;100.00;100160.47;4953637;28;20705;-79
2022/04/28 01:19:30;;;;;;;13.48;12.07;;;;;;;8.92;100.00;100154.47;4954185;28;20285;-79
2022/04/28 01:21:58;;;;;;;13.77;12.35;;;;;;;8.95;100.00;100157.06;4953407;28;20203;-79
2022/04/28 01:24:25;;;;;;;14.20;11.95;;;;;;;9.05;100.00;100168.28;4953599;28;20207;-79
2022/04/28 01:26:54;;;;;;;13.00;11.70;;;;;;;8.96;100.00;100157.91;4957130;28;20201;-79
2022/04/28 01:29:21;;;;;;;12.05;10.93;;;;;;;9.03;100.00;100155.84;4957613;28;20262;-79
2022/04/28 01:31:48;;;;;;;12.00;10.70;;;;;;;9.14;100.00;100164.31;4957429;28;20195;-79
2022/04/28 01:34:15;;;;;;;15.45;12.30;;;;;;;9.24;100.00;100162.09;4957365;28;20286;-79
2022/04/28 01:36:41;;;;;;;12.25;11.05;;;;;;;9.28;100.00;100161.91;4957501;28;20191;-79
2022/04/28 01:39:10;;;;;;;12.60;11.18;;;;;;;9.30;100.00;100170.75;4957135;28;20195;-79
2022/04/28 01:41:37;;;;;;;13.07;11.05;;;;;;;9.37;100.00;100171.38;4957605;28;20203;-79
2022/04/28 01:44:04;;;;;;;13.10;11.70;;;;;;;9.23;100.00;100166.59;4957495;28;20658;-78
2022/04/28 01:46:31;;;;;;;16.10;11.65;;;;;;;9.19;100.00;100173.03;4957333;28;20306;-78
2022/04/28 01:48:57;;;;;;;13.60;12.00;;;;;;;9.05;100.00;100168.28;4957062;28;20199;-78
2022/04/28 01:56:53;;;;;;;13.90;11.40;;;;;;;8.99;100.00;100176.56;4956783;29;20262;-77
2022/04/28 01:59:19;;;;;;;12.57;11.27;;;;;;;8.93;100.00;100183.09;4957033;28;20620;-78
2022/04/28 02:01:46;;;;;;;14.43;12.48;;;;;;;9.03;100.00;100174.66;4956971;28;20188;-79
2022/04/28 02:04:13;;;;;;;13.57;11.90;;;;;;;9.09;100.00;100177.06;4956563;28;20226;-78
2022/04/28 02:06:43;;;;;;;13.65;11.60;;;;;;;9.06;100.00;100174.50;4956540;28;20742;-79
2022/04/28 02:09:09;;;;;;;13.02;11.70;;;;;;;9.10;100.00;100185.06;4956965;28;20219;-78
2022/04/28 02:11:36;;;;;;;11.98;10.68;;;;;;;9.24;100.00;100183.59;4956976;28;20646;-79
2022/04/28 02:14:04;;;;;;;14.52;10.65;;;;;;;9.25;100.00;100185.31;4956541;28;20219;-78
2022/04/28 02:16:30;;;;;;;15.18;11.75;;;;;;;9.15;100.00;100183.03;4956391;28;20888;-78
2022/04/28 02:18:57;;;;;;;15.02;11.65;;;;;;;9.19;100.00;100186.47;4956196;29;20287;-78
2022/04/28 02:21:24;;;;;;;12.52;11.23;;;;;;;9.02;100.00;100175.56;4956701;28;20229;-78
2022/04/28 02:23:50;;;;;;;13.45;11.52;;;;;;;8.93;100.00;100183.09;4957142;28;20222;-78
2022/04/28 02:26:17;;;;;;;15.05;12.50;;;;;;;8.81;100.00;100177.34;4956742;28;20648;-78
2022/04/28 02:28:44;;;;;;;16.88;11.32;;;;;;;8.69;100.00;100179.59;4956722;28;20558;-78
2022/04/28 02:31:12;;;;;;;14.23;11.23;;;;;;;8.59;100.00;100177.34;4956868;28;20196;-79
2022/04/28 02:33:39;;;;;;;13.85;12.05;;;;;;;8.54;100.00;100178.41;4956472;28;20625;-78
2022/04/28 02:36:06;;;;;;;12.77;11.48;;;;;;;8.51;100.00;100183.91;4956542;28;20520;-78
2022/04/28 02:38:32;;;;;;;16.50;12.30;;;;;;;8.48;100.00;100181.38;4954188;28;20721;-78
2022/04/28 02:40:59;;;;;;;14.18;12.18;;;;;;;8.68;100.00;100177.88;4956032;28;20206;-79
2022/04/28 02:43:25;;;;;;;12.60;9.75;;;;;;;8.79;100.00;100182.78;4956195;28;20549;-78
2022/04/28 02:45:53;;;;;;;12.30;11.00;;;;;;;8.84;100.00;100179.91;4956342;28;20302;-79
2022/04/28 02:48:22;;;;;;;13.02;11.45;;;;;;;8.72;100.00;100179.47;4956987;28;20516;-78
2022/04/28 02:50:49;;;;;;;27.40;13.60;;;;;;;8.66;100.00;100181.53;4941765;28;20196;-78
2022/04/28 02:53:15;;;;;;;10.75;9.52;;;;;;;8.54;100.00;100175.72;4951745;29;20211;-78
2022/04/28 02:55:42;;;;;;;12.45;11.25;;;;;;;8.54;100.00;100188.28;4956360;28;20188;-78
2022/04/28 02:58:09;;;;;;;12.95;11.38;;;;;;;8.57;100.00;100177.44;4955935;28;20204;-78
2022/04/28 03:00:36;;;;;;;11.80;10.60;;;;;;;8.45;100.00;100178.78;4956642;28;20229;-78
2022/04/28 03:03:03;;;;;;;12.73;11.23;;;;;;;8.39;100.00;100183.50;4956682;28;20190;-79
2022/04/28 03:05:31;;;;;;;12.32;11.02;;;;;;;8.34;100.00;100187.25;4956669;28;20719;-79
2022/04/28 03:10:51;;;;;;;14.55;11.57;;;;;;;8.51;100.00;100183.91;4955823;29;20282;-78
2022/04/28 03:13:19;;;;;;;13.70;11.60;;;;;;;8.64;100.00;100183.41;4956325;28;20194;-78
2022/04/28 03:15:46;;;;;;;13.48;11.98;;;;;;;8.50;100.00;100192.91;4955467;28;20294;-79
2022/04/28 03:18:13;;;;;;;13.50;11.43;;;;;;;8.52;100.00;100187.47;4955332;28;20230;-78
2022/04/28 03:20:42;;;;;;;14.07;10.60;;;;;;;8.62;100.00;100193.38;4955242;28;20189;-78
2022/04/28 03:23:11;;;;;;;12.90;11.60;;;;;;;8.43;100.00;100195.88;4955878;28;20301;-80
2022/04/28 03:25:38;;;;;;;13.25;10.90;;;;;;;8.21;100.00;100193.13;4955386;28;20212;-79
2022/04/28 03:28:05;;;;;;;11.30;10.10;;;;;;;8.13;100.00;100202.34;4955604;28;20554;-78
2022/04/28 03:30:31;;;;;;;12.88;11.45;;;;;;;8.21;100.00;100199.41;4955640;28;20194;-80
2022/04/28 03:32:58;;;;;;;13.18;11.18;;;;;;;8.10;100.00;100199.81;4955814;28;20212;-78
2022/04/28 03:35:24;;;;;;;13.55;12.15;;;;;;;8.03;100.00;100200.13;4955787;28;20183;-78
2022/04/28 03:37:52;;;;;;;12.00;10.80;;;;;;;7.97;100.00;100205.69;4955178;28;20206;-77
2022/04/28 03:40:19;;;;;;;13.27;11.82;;;;;;;7.83;100.00;100211.59;4954701;28;20209;-77
2022/04/28 03:42:46;;;;;;;13.80;12.25;;;;;;;7.80;100.00;100204.53;4955299;28;20636;-77
2022/04/28 03:45:12;;;;;;;12.23;11.00;;;;;;;7.81;100.00;100217.00;4954986;28;20225;-77
2022/04/28 03:47:39;;;;;;;12.80;11.20;;;;;;;7.93;100.00;100216.53;4948909;28;20196;-77
2022/04/28 03:50:07;;;;;;;14.00;12.27;;;;;;;7.96;100.00;100209.28;4934880;29;20672;-78
2022/04/28 03:52:34;;;;;;;12.75;11.45;;;;;;;8.07;100.00;100216.03;4936306;29;20186;-78
2022/04/28 03:55:02;;;;;;;12.40;11.20;;;;;;;7.95;100.00;100219.16;4936342;29;20203;-78
2022/04/28 03:57:29;;;;;;;12.43;11.23;;;;;;;7.88;100.00;100225.69;4940846;29;20232;-79
2022/04/28 03:59:57;;;;;;;13.05;11.02;;;;;;;7.93;100.00;100219.19;4955479;28;20208;-79
2022/04/28 04:02:23;;;;;;;13.00;11.70;;;;;;;7.96;100.00;100220.94;4956022;28;20191;-78
2022/04/28 04:04:50;;;;;;;13.35;11.10;;;;;;;8.09;100.00;100221.31;4955649;28;20263;-77
2022/04/28 04:07:16;;;;;;;12.32;11.02;;;;;;;8.24;100.00;100217.19;4955677;28;20193;-78
2022/04/28 04:09:43;;;;;;;13.35;11.15;;;;;;;8.31;100.00;100216.88;4955219;28;20565;-77
2022/04/28 04:12:11;;;;;;;12.15;10.85;;;;;;;8.14;100.00;100212.19;4955124;28;20189;-79
2022/04/28 04:14:38;;;;;;;11.90;10.70;;;;;;;7.97;100.00;100235.19;4954922;28;20202;-77
2022/04/28 04:17:05;;;;;;;13.20;11.90;;;;;;;8.01;100.00;100235.03;4954485;28;20229;-80
2022/04/28 04:19:31;;;;;;;12.18;10.98;;;;;;;8.18;100.00;100220.09;4954887;28;20271;-80
2022/04/28 04:21:58;;;;;;;12.23;10.98;;;;;;;8.30;100.00;100225.88;4955943;28;20200;-79
2022/04/28 04:24:25;;;;;;;12.48;11.18;;;;;;;8.38;100.00;100230.94;4937681;28;20226;-78
2022/04/28 04:26:52;;;;;;;17.48;14.73;;;;;;;8.43;100.00;100231.66;4937341;29;20198;-79
2022/04/28 04:29:20;;;;;;;14.32;11.38;;;;;;;8.44;100.00;100227.19;4937870;29;20194;-78
2022/04/28 04:34:30;;;;;;;12.65;11.35;;;;;;;8.31;100.00;100237.47;4936600;29;20552;-78
2022/04/28 04:36:57;;;;;;;12.52;10.90;;;;;;;8.50;100.00;100240.34;4936920;29;20644;-78
2022/04/28 04:39:24;;;;;;;12.57;10.15;;;;;;;8.43;100.00;100247.75;4936436;29;20207;-78
2022/04/28 04:41:50;;;;;;;11.57;10.35;;;;;;;8.45;100.00;100247.69;4936684;29;20192;-78
2022/04/28 04:44:17;;;;;;;12.85;10.55;;;;;;;8.56;100.00;100258.88;4937512;29;20691;-80
2022/04/28 04:46:45;;;;;;;12.10;9.93;;;;;;;8.41;100.00;100263.06;4937276;29;20221;-78
2022/04/28 04:49:11;;;;;;;11.48;10.07;;;;;;;8.59;100.00;100263.25;4935376;29;20208;-79
2022/04/28 04:51:38;;;;;;;14.25;12.43;;;;;;;8.63;100.00;100267.56;4934945;29;20195;-79
2022/04/28 04:54:05;;;;;;;13.32;11.95;;;;;;;8.87;100.00;100266.59;4947921;29;20649;-78
2022/04/28 04:56:33;;;;;;;12.60;11.07;;;;;;;8.91;100.00;100267.34;4955034;28;20648;-80
2022/04/28 04:59:00;;;;;;;12.40;10.70;;;;;;;8.96;100.00;100263.53;4955090;28;20185;-78
2022/04/28 05:01:26;;;;;;;12.00;10.38;;;;;;;9.07;100.00;100267.63;4944416;28;20202;-78
2022/04/28 05:03:54;;;;;;;12.77;11.43;;;;;;;9.14;100.00;100266.41;4945762;29;20277;-78
2022/04/28 05:06:21;;;;;;;12.65;11.38;;;;;;;8.85;100.00;100273.84;4953627;28;20589;-78
2022/04/28 05:08:48;;;;;;;12.52;11.23;;;;;;;8.93;100.00;100276.19;4953695;28;20202;-78
2022/04/28 05:11:14;;;;;;;14.18;11.68;;;;;;;8.80;100.00;100278.53;4954861;28;20185;-81
2022/04/28 05:13:41;;;;;;;12.55;10.93;;;;;;;8.94;100.00;100278.84;4954618;28;20627;-78
2022/04/28 05:16:07;;;;;;;12.82;11.50;;;;;;;9.07;100.00;100278.34;4950172;28;20237;-79
2022/04/28 05:18:34;;;;;;;13.65;12.25;;;;;;;9.24;100.00;100283.88;4953592;28;20203;-78
2022/04/28 05:21:03;;;;;;;12.50;10.88;;;;;;;9.40;100.00;100290.34;4953341;28;20302;-78
2022/04/28 05:23:30;;;;;;;14.00;12.70;;;;;;;9.54;100.00;100288.91;4953498;28;20262;-78
2022/04/28 05:25:56;;;;;;;14.15;12.40;;;;;;;9.44;100.00;100293.81;4953674;28;20638;-78
2022/04/28 05:28:26;;;;;;;12.48;11.25;;;;;;;9.58;100.00;100296.75;4953458;28;20303;-79
2022/04/28 05:30:55;;;;;;;14.80;11.55;;;;;;;9.48;100.00;100294.56;4954588;28;20192;-78
2022/04/28 05:33:21;;;;;;;15.55;11.82;;;;;;;9.58;100.00;100294.06;4955272;28;20196;-78
2022/04/28 05:35:48;;;;;;;14.57;11.40;;;;;;;9.59;100.00;100300.34;4955276;28;20210;-78
2022/04/28 05:38:16;;;;;;;17.58;11.80;;;;;;;9.49;100.00;100297.16;4953012;28;20192;-77
2022/04/28 05:40:43;;;;;;;14.38;11.25;;;;;;;9.35;100.00;100303.13;4951159;28;20189;-80
2022/04/28 05:46:04;;;;;;;13.18;11.05;;;;;;;9.67;100.00;100300.88;4914381;29;20225;-79
2022/04/28 05:48:34;;;;;;;21.73;11.98;;;;;;;9.75;100.00;100297.88;4953891;29;20945;-80
2022/04/28 05:51:00;;;;;;;12.63;10.65;;;;;;;9.89;100.00;100310.72;4954116;28;20185;-81
2022/04/28 05:53:28;;;;;;;16.33;11.98;;;;;;;9.97;100.00;100305.84;4953476;28;20652;-80
2022/04/28 05:55:55;;;;;;;14.45;10.82;;;;;;;10.12;100.00;100307.88;4953666;28;20645;-81
2022/04/28 05:58:21;;;;;;;13.00;10.68;;;;;;;10.11;100.00;100303.44;4953061;28;20215;-81
2022/04/28 06:00:48;;;;;;;13.55;10.45;;;;;;;10.25;98.59;100312.72;4952827;28;20212;-80
2022/04/28 06:03:15;;;;;;;11.90;10.50;;;;;;;10.34;98.10;100310.50;4952572;28;20231;-81
2022/04/28 06:05:41;;;;;;;20.38;16.70;;;;;;;10.59;96.51;100312.91;4951887;28;20235;-80
2022/04/28 06:08:08;;;;;;;17.50;10.73;;;;;;;10.60;95.71;100313.78;4953372;28;20616;-81
2022/04/28 06:10:36;;;;;;;11.38;9.93;;;;;;;10.72;93.83;100317.72;4953303;28;20614;-80
2022/04/28 06:13:06;;;;;;;13.05;10.20;;;;;;;10.79;93.23;100320.06;4956416;28;20215;-81
2022/04/28 06:15:33;;;;;;;10.48;9.38;;;;;;;10.78;92.68;100328.22;4959872;28;20207;-80
2022/04/28 06:18:06;;;;;;;11.73;10.63;;;;;;;10.97;92.34;100326.41;4956215;28;20232;-80
2022/04/28 06:20:33;;;;;;;12.30;11.00;;;;;;;11.04;90.80;100327.84;4957296;28;20189;-81
2022/04/28 06:23:00;;;;;;;11.85;9.23;;;;;;;11.18;89.20;100329.00;4956335;28;20185;-80
2022/04/28 06:25:28;;;;;;;12.15;10.23;;;;;;;11.37;88.64;100323.56;4956220;28;20652;-81
2022/04/28 06:27:56;;;;;;;11.13;10.02;;;;;;;11.47;87.46;100331.13;4957918;28;20203;-80
2022/04/28 06:30:23;;;;;;;11.75;10.55;;;;;;;11.43;86.48;100324.13;4955851;28;20201;-81
2022/04/28 06:32:50;;;;;;;13.07;10.88;;;;;;;11.64;85.70;100334.78;4956084;28;20195;-80
2022/04/28 06:35:17;;;;;;;10.55;9.55;;;;;;;11.74;86.18;100338.78;4955797;28;20204;-80
2022/04/28 06:37:43;;;;;;;11.20;10.00;;;;;;;11.94;83.46;100336.88;4957927;28;20193;-80
2022/04/28 06:40:12;;;;;;;14.63;12.23;;;;;;;12.00;84.34;100344.66;4956996;28;20215;-81
2022/04/28 06:42:41;;;;;;;12.65;10.07;;;;;;;12.20;82.63;100344.50;4956362;28;20663;-81
2022/04/28 06:45:10;;;;;;;15.90;11.32;;;;;;;12.28;80.83;100339.56;4956080;28;20210;-81
2022/04/28 06:47:36;;;;;;;12.05;9.68;;;;;;;12.43;79.77;100347.78;4955941;28;20199;-80
2022/04/28 06:50:04;;;;;;;11.93;10.55;;;;;;;12.47;79.95;100346.66;4955771;28;20224;-80
2022/04/28 06:52:31;;;;;;;11.60;10.15;;;;;;;12.70;78.91;100348.97;4955752;28;20188;-80
2022/04/28 06:54:58;;;;;;;10.73;9.63;;;;;;;12.84;76.83;100341.94;4955692;28;20532;-80
2022/04/28 06:57:25;;;;;;;11.88;9.93;;;;;;;12.97;76.25;100337.59;4955691;28;20206;-81
2022/04/28 06:59:51;;;;;;;10.27;9.18;;;;;;;12.93;75.31;100341.41;4955429;28;20239;-81
2022/04/28 07:02:20;;;;;;;10.13;9.02;;;;;;;13.06;75.27;100345.19;4955735;28;20193;-81
2022/04/28 07:04:46;;;;;;;11.32;9.13;;;;;;;13.25;73.97;100353.13;4955357;28;20291;-80
2022/04/28 07:07:13;;;;;;;9.90;8.90;;;;;;;13.38;72.73;100350.63;4955309;28;20193;-80
2022/04/28 07:09:40;;;;;;;10.52;8.70;;;;;;;13.40;71.56;100350.53;4955555;28;20260;-80
2022/04/28 07:12:07;;;;;;;10.52;9.43;;;;;;;13.45;70.93;100346.59;4955698;28;20234;-80
2022/04/28 07:14:34;;;;;;;11.02;9.43;;;;;;;13.44;70.71;100350.25;4955357;28;20623;-81
2022/04/28 07:17:01;;;;;;;16.77;13.60;;;;;;;13.67;69.35;100343.50;4956708;28;20328;-80
2022/04/28 07:19:29;;;;;;;13.25;8.80;;;;;;;13.82;68.52;100344.44;4956877;28;20197;-81
2022/04/28 07:21:55;;;;;;;15.10;10.52;;;;;;;13.97;68.22;100350.75;4956485;28;20211;-81
2022/04/28 07:24:22;;;;;;;12.57;9.57;;;;;;;14.05;66.96;100353.88;4957188;28;20205;-80
2022/04/28 07:26:49;;;;;;;11.52;9.60;;;;;;;14.23;65.84;100351.88;4957114;28;20247;-81
2022/04/28 07:29:15;;;;;;;9.88;7.72;;;;;;;14.53;64.61;100350.94;4957333;28;20199;-81
2022/04/28 07:31:43;;;;;;;11.63;8.75;;;;;;;14.66;62.75;100351.94;4957274;28;20221;-81
2022/04/28 07:34:10;;;;;;;9.93;8.45;;;;;;;14.77;61.97;100354.84;4957720;28;20195;-81
2022/04/28 07:36:38;;;;;;;11.43;9.05;;;;;;;14.91;61.64;100359.41;4956837;28;20233;-81
2022/04/28 07:39:05;;;;;;;8.88;7.97;;;;;;;14.76;60.20;100363.94;4957251;28;20629;-81
2022/04/28 07:41:31;;;;;;;8.60;7.70;;;;;;;14.82;59.34;100362.69;4957311;28;20195;-81
2022/04/28 07:43:58;;;;;;;8.88;8.07;;;;;;;14.95;58.81;100365.50;4957395;28;20202;-81
2022/04/28 07:46:25;;;;;;;7.65;6.70;;;;;;;15.11;57.89;100360.81;4956346;28;20322;-80
2022/04/28 07:48:51;;;;;;;8.02;7.30;;;;;;;15.33;56.67;100360.31;4957000;28;20196;-80
2022/04/28 07:51:18;;;;;;;8.18;6.50;;;;;;;15.36;56.11;100365.50;4956263;28;20193;-80
2022/04/28 07:53:46;;;;;;;10.60;8.07;;;;;;;15.60;55.63;100363.03;4956467;28;20215;-80
2022/04/28 07:56:18;;;;;;;7.57;6.88;;;;;;;15.79;55.04;100368.09;4956072;28;20203;-79
2022/04/28 07:58:45;;;;;;;8.27;7.45;;;;;;;15.78;54.64;100366.38;4956388;28;20235;-81
2022/04/28 08:01:13;;;;;;;8.95;7.75;;;;;;;16.12;53.46;100368.63;4956054;28;20203;-81
2022/04/28 08:03:40;;;;;;;8.57;7.70;;;;;;;16.15;52.86;100374.72;4956299;28;20188;-82
2022/04/28 08:06:07;;;;;;;7.10;6.40;;;;;;;16.31;50.93;100374.53;4955861;28;20224;-80
2022/04/28 08:08:35;;;;;;;6.72;6.03;;;;;;;16.28;49.57;100377.47;4956130;28;20205;-80
2022/04/28 08:11:04;;;;;;;9.60;6.75;;;;;;;16.20;50.32;100371.69;4956197;28;20193;-80
2022/04/28 08:13:30;;;;;;;6.30;5.70;;;;;;;16.44;50.14;100383.56;4955906;28;20686;-81
2022/04/28 08:15:57;;;;;;;6.47;5.57;;;;;;;16.15;49.89;100372.00;4955199;28;20238;-81
2022/04/28 08:18:24;;;;;;;8.38;6.57;;;;;;;16.29;49.75;100375.63;4954106;28;20267;-80
2022/04/28 08:20:51;;;;;;;7.40;6.60;;;;;;;16.53;49.43;100375.72;4953457;28;20204;-81
2022/04/28 08:23:18;;;;;;;5.70;5.20;;;;;;;16.24;49.59;100374.06;4953840;28;20690;-80
2022/04/28 08:25:44;;;;;;;9.43;7.10;;;;;;;16.54;49.45;100375.63;4953632;28;20220;-81
2022/04/28 08:28:12;;;;;;;7.30;5.70;;;;;;;16.79;48.08;100377.50;4953742;28;20208;-81
2022/04/28 08:30:39;;;;;;;8.10;7.40;;;;;;;17.16;46.76;100379.41;4953759;28;20188;-81
2022/04/28 08:33:06;;;;;;;10.05;7.75;;;;;;;17.24;46.08;100385.16;4953692;28;20195;-80
2022/04/28 08:35:33;;;;;;;7.53;5.35;;;;;;;17.12;45.70;100384.22;4952970;28;20291;-80
2022/04/28 08:37:59;;;;;;;9.85;6.75;;;;;;;17.08;46.48;100378.09;4953597;28;20644;-81
2022/04/28 08:40:26;;;;;;;7.22;5.72;;;;;;;17.42;44.06;100377.47;4953199;28;20200;-81
2022/04/28 08:42:54;;;;;;;5.85;5.25;;;;;;;17.50;44.53;100372.31;4953110;28;20192;-81
2022/04/28 08:45:28;;;;;;;6.60;6.10;;;;;;;17.00;46.47;100382.34;4953771;28;20204;-81
2022/04/28 08:47:58;;;;;;;7.10;6.32;;;;;;;17.48;45.60;100374.31;4953948;28;20191;-81
2022/04/28 08:50:25;;;;;;;6.45;5.45;;;;;;;17.75;43.42;100374.09;4953774;28;20188;-80
2022/04/28 08:52:56;;;;;;;6.05;5.45;;;;;;;18.00;43.36;100373.13;4953746;28;20553;-80
2022/04/28 08:55:22;;;;;;;8.15;5.75;;;;;;;18.16;43.54;100388.25;4953640;28;20188;-80
2022/04/28 08:57:49;;;;;;;8.38;6.35;;;;;;;18.16;41.80;100385.53;4953514;28;20213;-81
2022/04/28 09:00:17;;;;;;;8.65;7.75;;;;;;;17.95;41.39;100388.91;4953624;28;20201;-81
2022/04/28 09:02:45;;;;;;;6.00;5.40;;;;;;;17.93;40.61;100388.16;4955042;28;20206;-81
2022/04/28 09:05:12;;;;;;;5.55;4.90;;;;;;;17.99;40.07;100384.97;4955725;28;20236;-80
2022/04/28 09:07:40;;;;;;;5.15;4.70;;;;;;;17.81;39.42;100372.75;4956114;28;20245;-82
2022/04/28 09:10:26;;;;;;;5.43;4.95;;;;;;;17.74;40.80;100387.81;4954943;28;20207;-80
2022/04/28 09:14:09;;;;;;;5.15;4.65;;;;;;;18.12;39.38;100382.19;4955703;28;20280;-81
2022/04/28 09:15:50;;;;;;;5.63;5.05;;;;;;;18.28;39.89;100374.56;4955958;29;20201;-80
2022/04/28 09:18:18;;;;;;;5.88;5.28;;;;;;;18.53;38.53;100380.81;4956266;28;20597;-80
2022/04/28 09:20:47;;;;;;;8.50;5.63;;;;;;;18.58;37.62;100383.16;4955649;28;20191;-80
2022/04/28 09:23:14;;;;;;;5.53;5.03;;;;;;;18.70;37.87;100379.44;4954778;28;20214;-79
2022/04/28 09:25:42;;;;;;;6.18;5.07;;;;;;;18.72;38.43;100369.28;4952952;28;20231;-80
2022/04/28 09:28:10;;;;;;;6.43;4.93;;;;;;;18.85;37.62;100370.09;4953238;28;20207;-81
2022/04/28 09:30:42;;;;;;;6.90;5.07;;;;;;;18.95;36.22;100365.63;4952922;28;20194;-80
2022/04/28 09:33:10;;;;;;;9.38;6.72;;;;;;;18.93;36.20;100373.06;4953003;28;20195;-81
2022/04/28 09:35:45;;;;;;;4.60;4.20;;;;;;;18.84;36.13;100384.72;4953049;28;20212;-80
2022/04/28 09:38:11;;;;;;;5.45;4.95;;;;;;;18.91;35.68;100380.50;4952960;28;20197;-80
2022/04/28 09:43:22;;;;;;;8.30;4.25;;;;;;;18.95;35.46;100370.22;4952956;29;20260;-80
2022/04/28 09:45:50;;;;;;;6.50;4.80;;;;;;;19.03;35.15;100372.31;4953442;28;20198;-79
2022/04/28 09:48:17;;;;;;;5.28;4.78;;;;;;;18.98;35.30;100380.88;4956960;28;20676;-80
2022/04/28 09:50:46;;;;;;;5.10;4.60;;;;;;;19.15;35.63;100374.03;4956717;28;20196;-79
2022/04/28 09:53:15;;;;;;;6.43;4.63;;;;;;;19.05;36.49;100367.59;4956914;28;20207;-80
2022/04/28 09:55:47;;;;;;;5.60;5.00;;;;;;;18.91;36.73;100369.59;4956513;28;20190;-80
2022/04/28 09:58:15;;;;;;;4.75;3.92;;;;;;;18.81;37.21;100368.59;4956294;28;20558;-80
2022/04/28 10:00:42;;;;;;;5.95;4.32;;;;;;;18.96;37.41;100367.34;4956268;28;20294;-81
2022/04/28 10:03:11;;;;;;;7.90;4.45;;;;;;;19.09;36.55;100372.69;4956487;28;20285;-80
2022/04/28 10:05:38;;;;;;;4.93;4.43;;;;;;;19.20;36.21;100358.19;4956536;28;20201;-81
2022/04/28 10:08:07;;;;;;;5.93;4.28;;;;;;;19.02;34.77;100363.28;4956073;28;20217;-81
2022/04/28 10:10:35;;;;;;;8.85;4.70;;;;;;;19.04;34.47;100369.47;4956085;28;20226;-81
2022/04/28 10:13:02;;;;;;;5.53;3.13;;;;;;;19.21;33.72;100369.97;4957110;28;20188;-80
2022/04/28 10:15:32;;;;;;;5.30;3.88;;;;;;;19.50;33.16;100356.63;4956343;28;20218;-81
2022/04/28 10:18:04;;;;;;;5.55;4.35;;;;;;;19.27;33.57;100361.28;4955941;28;20310;-79
2022/04/28 10:20:35;;;;;;;5.10;4.68;;;;;;;19.31;33.04;100366.34;4955894;28;20182;-80
2022/04/28 10:23:09;;;;;;;7.07;6.38;;;;;;;19.43;33.11;100364.47;4956003;28;20285;-81
2022/04/28 10:34:12;;;;;;;5.85;5.18;;;;;;;19.24;33.33;100343.25;4955673;29;20271;-80
2022/04/28 10:36:54;;;;;;;5.03;4.53;;;;;;;19.31;33.34;100355.44;4955453;28;20200;-80
2022/04/28 10:39:38;;;;;;;4.68;4.25;;;;;;;19.41;33.15;100357.41;4955676;28;20185;-80
2022/04/28 10:42:13;;;;;;;5.17;4.47;;;;;;;19.33;33.26;100353.44;4956143;28;20200;-81
2022/04/28 10:44:42;;;;;;;5.43;4.78;;;;;;;19.56;33.06;100348.78;4955678;28;20427;-80
2022/04/28 10:47:08;;;;;;;5.97;4.75;;;;;;;19.68;32.63;100344.16;4955802;28;20221;-80
2022/04/28 10:49:39;;;;;;;10.45;8.88;;;;;;;19.65;32.70;100355.34;4955543;28;20195;-80
2022/04/28 10:52:07;;;;;;;4.40;3.55;;;;;;;19.78;32.78;100350.59;4955548;28;20196;-80
2022/04/28 10:54:44;;;;;;;4.43;3.67;;;;;;;19.59;32.76;100353.13;4955575;28;20650;-80
2022/04/28 10:57:13;;;;;;;4.07;3.67;;;;;;;19.47;32.41;100343.19;4955388;28;20793;-81
2022/04/28 10:59:42;;;;;;;5.25;3.55;;;;;;;19.57;32.60;100344.19;4954936;28;20204;-81
2022/04/28 11:02:40;;;;;;;7.53;4.20;;;;;;;19.77;31.89;100342.53;4955085;28;20278;-80
2022/04/28 11:05:42;;;;;;;3.63;3.20;;;;;;;19.56;31.25;100347.91;4951077;28;20200;-79
2022/04/28 11:08:34;;;;;;;5.85;3.83;;;;;;;19.53;31.67;100342.69;4954594;28;20467;-81
2022/04/28 11:11:09;;;;;;;4.18;3.78;;;;;;;19.74;31.57;100340.94;4944685;28;20542;-81
2022/04/28 11:13:43;;;;;;;3.97;3.67;;;;;;;19.83;31.73;100343.88;4939657;28;20195;-80
2022/04/28 11:16:11;;;;;;;5.00;3.38;;;;;;;20.00;31.68;100333.22;4951351;29;20632;-80
2022/04/28 11:18:38;;;;;;;5.90;4.40;;;;;;;20.07;32.38;100339.03;4953830;28;20203;-80
2022/04/28 11:21:06;;;;;;;4.75;4.35;;;;;;;19.95;32.11;100337.38;4954906;28;20997;-80
2022/04/28 11:23:47;;;;;;;4.85;4.45;;;;;;;20.14;31.86;100333.91;4954768;28;20702;-81
2022/04/28 11:26:15;;;;;;;4.32;3.83;;;;;;;20.06;31.75;100337.31;4953554;28;20654;-81
2022/04/28 11:28:49;;;;;;;4.90;3.83;;;;;;;19.77;32.47;100332.47;4948968;29;20215;-81
2022/04/28 11:31:18;;;;;;;5.07;3.63;;;;;;;20.08;31.69;100331.69;4953810;29;20252;-81
2022/04/28 11:34:00;;;;;;;5.53;5.03;;;;;;;20.20;31.80;100320.56;4951161;28;20655;-81
2022/04/28 11:36:33;;;;;;;5.45;4.47;;;;;;;20.39;31.91;100325.28;4951279;29;20199;-81
2022/04/28 11:39:15;;;;;;;7.30;4.68;;;;;;;20.23;32.10;100324.03;4955478;28;20621;-80
2022/04/28 11:41:43;;;;;;;3.50;3.10;;;;;;;20.36;31.46;100316.50;4954127;28;20202;-81
2022/04/28 11:44:12;;;;;;;4.07;3.67;;;;;;;20.31;31.77;100325.09;4948095;28;20962;-82
2022/04/28 11:46:49;;;;;;;5.20;4.70;;;;;;;20.35;32.31;100318.38;4953977;28;20562;-82